Cement, OK (73017)

1:13 AM CST on January 24, 2017 (GMT -0600)
Cement USA | | Change Station
Active Advisory: Fire Weather Watch

Elev 1526 ft 34.94 °N, 98.14 °W | Updated 6 seconds ago

Clear
Clear
51.6 °F
Feels Like 51.6 °F
N
6.5
Wind Variable Wind from South
Gusts 9.8 mph

Today
High -- | Low -- °F
--% Chance of Precip.
Yesterday
High -- | Low -- °F
Precip. -- in
Pressure 29.64 in
Visibility -9999.0 miles
Clouds Clear
Dew Point 37 °F
Humidity 57%
Rainfall 0.00 in
Snow Depth Not available.
7:36 AM 5:53 PM
Waning Crescent, 13% visible
METAR KCHK 240655Z AUTO 00000KT CLR 09/03 A2964 RMK AO2 PWINO
Pressure 29.64 in
Visibility -9999.0 miles
Clouds Clear
Dew Point 37 °F
Humidity 57%
Rainfall 0.00 in
Snow Depth Not available.
7:36 AM 5:53 PM
Waning Crescent, 13% visible
METAR KCHK 240655Z AUTO 00000KT CLR 09/03 A2964 RMK AO2 PWINO

Get Your Daily Forecast Email!

Thanks for signing up!

Be on the lookout for a verification email in your inbox.

You'll start receiving the daily forecast at 8 AM.

×

10-Day Weather Forecast

Almanac

Astronomy

Jan. 24, 2017 Rise Set
Actual Time
Civil Twilight
Nautical Twilight
Astronomical Twilight
Moon
Length of Visible Light
Length of Day
Tomorrow will be .
, % of the Moon is Illuminated

Today's Extremes

State Highs State Lows

Community

WunderPhotos

Upload Photos

1,962,540 photos uploaded!

WunderBlog® & News

Nearby

Air Quality

  Air Quality AQ Index Pollutant
Not available.

Snow Depth

Station Depth Elevation

Earthquake Activity

City Distance Mag. Time & Date
Minimum magnitude displayed is 2.5.

Coastal Water Temperatures

Place Temperature

Stations

Nearby Weather Stations

Station Location Temp. Windchill Dew Point Humidity Wind Precip. Elev Updated Type
                   

Watches & Warnings

Fire Weather Watch
Issued: 1:23 PM CST Jan. 23, 2017 – National Weather Service

... Fire Weather Watch in effect Tuesday afternoon for windy
conditions... warm temperatures and low relative humidity for
the western half of Oklahoma and western North Texas...

The National Weather Service in Norman has issued a Fire Weather
Watch... which is in effect Tuesday afternoon.

* Timing... noon Tuesday through around 6 PM

* wind... southwest to west at 20 to 30 mph with gusts over 40
mph.

* Humidity... 18 to 25 percent

* temperature... afternoon highs in the mid 60s to lower 70s

* impacts... any fires that develop will likely spread rapidly.
Outdoor burning is not recommended.


Precautionary/preparedness actions...

A Fire Weather Watch means that critical fire weather conditions
are forecast to occur. Listen for later forecasts and possible
red flag warnings.